sensor_id;sensor_type;location;lat;lon;timestamp;temperature;humidity
20438;DHT22;65664;50.380;8.812;2023-02-01T04:15:34;5.50;99.90
20438;DHT22;65664;50.380;8.812;2023-02-01T04:18:01;6.00;99.90
20438;DHT22;65664;50.380;8.812;2023-02-01T04:20:28;6.20;99.10
20438;DHT22;65664;50.380;8.812;2023-02-01T04:22:55;6.40;97.90
20438;DHT22;65664;50.380;8.812;2023-02-01T04:25:22;6.50;96.40
20438;DHT22;65664;50.380;8.812;2023-02-01T04:27:49;6.60;94.30
20438;DHT22;65664;50.380;8.812;2023-02-01T04:30:16;6.70;93.40
20438;DHT22;65664;50.380;8.812;2023-02-01T05:02:07;5.70;99.90
20438;DHT22;65664;50.380;8.812;2023-02-01T05:04:34;6.00;99.90
20438;DHT22;65664;50.380;8.812;2023-02-01T05:07:00;6.30;99.90
20438;DHT22;65664;50.380;8.812;2023-02-01T17:30:17;6.70;62.80
20438;DHT22;65664;50.380;8.812;2023-02-01T17:32:44;7.10;62.90
20438;DHT22;65664;50.380;8.812;2023-02-01T17:35:17;7.30;60.70
20438;DHT22;65664;50.380;8.812;2023-02-01T17:37:44;7.30;59.70
20438;DHT22;65664;50.380;8.812;2023-02-01T17:40:12;7.30;59.20
20438;DHT22;65664;50.380;8.812;2023-02-01T17:42:40;7.30;59.70
20438;DHT22;65664;50.380;8.812;2023-02-01T17:45:23;7.30;60.70
20438;DHT22;65664;50.380;8.812;2023-02-01T17:47:52;7.30;61.10
20438;DHT22;65664;50.380;8.812;2023-02-01T17:50:19;7.20;62.00
20438;DHT22;65664;50.380;8.812;2023-02-01T17:52:46;7.20;63.10
20438;DHT22;65664;50.380;8.812;2023-02-01T17:55:17;7.30;63.30
20438;DHT22;65664;50.380;8.812;2023-02-01T17:57:46;7.40;63.40
20438;DHT22;65664;50.380;8.812;2023-02-01T18:41:17;6.40;84.70
20438;DHT22;65664;50.380;8.812;2023-02-01T18:43:45;6.80;84.80
20438;DHT22;65664;50.380;8.812;2023-02-01T18:46:13;6.90;81.60
20438;DHT22;65664;50.380;8.812;2023-02-01T18:48:41;6.90;79.90
20438;DHT22;65664;50.380;8.812;2023-02-01T18:51:09;6.90;79.90
20438;DHT22;65664;50.380;8.812;2023-02-01T18:53:36;6.80;80.90
20438;DHT22;65664;50.380;8.812;2023-02-01T18:56:04;6.80;81.80
20438;DHT22;65664;50.380;8.812;2023-02-01T18:58:32;6.90;80.00
20438;DHT22;65664;50.380;8.812;2023-02-01T19:01:06;6.90;75.70
20438;DHT22;65664;50.380;8.812;2023-02-01T19:03:33;6.90;74.90
20438;DHT22;65664;50.380;8.812;2023-02-01T19:06:00;7.00;75.00
20438;DHT22;65664;50.380;8.812;2023-02-01T19:08:27;7.00;74.80
20438;DHT22;65664;50.380;8.812;2023-02-01T19:10:53;7.00;75.50
20438;DHT22;65664;50.380;8.812;2023-02-01T19:13:20;7.00;76.10
20438;DHT22;65664;50.380;8.812;2023-02-01T19:15:50;7.10;77.70
20438;DHT22;65664;50.380;8.812;2023-02-01T19:18:17;7.00;76.40
20438;DHT22;65664;50.380;8.812;2023-02-01T19:20:46;7.20;75.40
20438;DHT22;65664;50.380;8.812;2023-02-01T20:24:43;6.40;93.90
20438;DHT22;65664;50.380;8.812;2023-02-01T20:27:10;6.70;93.60
